Pistol Ridge, Mississippi
Current Conditions -  °F | °C
As of 8:53 PM on Monday 22 Dec 2014 (Local Time) from KHBG Reporting Station
Broken Clouds Broken Clouds  
Wind Chill: 68°   Ceiling: 2100
Heat Index: 68°   Visibility: 9mi
Dew Point: 66°   Wind: 7mph
Humidity: 93%   Direction: 180°S
Pressure: 29.73"   Gusts: NA
Location:  31.0601°N, 89.4815°W
Report Text: KHBG 230253Z AUTO 18006KT 9SM SCT015 BKN021 BKN039 20/19 A2973 RMK AO2 SLP065 T02000189 58003
Loading
Personal Weather Stations






























Interactive Weather Map New forecast layout! Learn more

10-Day Weather Forecast

Advertisements
Track Severe Weather on mobile